Kaltag, AK

11:35 AM AKDT on August 27, 2014 (GMT -0800)
Kaltag | Change Station
CLOSE
Current Station
Airport
Location: Kaltag,
Elevation: 200 ft
Nearby Weather Stations

Elev 200 ft 64.32 °N, 158.74 °W | Updated 21 minutes ago

Overcast
Overcast
56 °F
Feels Like 56 °F
N
4
Wind Variable Wind from Variable

Today
High -- | Low -- °F
--% Chance of Precip.
Yesterday
High -- | Low -- °F
Precip. -- in
7:02 AM 10:08 PM
Waxing Crescent, 4% visible
Pressure 29.77 in
Visibility 10.0 miles
Clouds Mostly Cloudy 1600 ft
Overcast 4400 ft
Dew Point 51 °F
Humidity 84%
Rainfall 0.00 in
Snow Depth Not available.
UV 1 out of 12
Pollen Not available.
Air Quality Not available.
Flu Activity Not available.
SPECI PAKV 271914Z AUTO VRB03KT 10SM BKN016 OVC044 13/11 A2977 RMK AO1 T01330106 TSNO

More Conditions Fewer Conditions

Pressure 29.77 in
Visibility 10.0 miles
Clouds Mostly Cloudy 1600 ft
Overcast 4400 ft
Dew Point 51 °F
Humidity 84%
Rainfall 0.00 in
Snow Depth Not available.
UV 1 out of 12
Pollen Not available.
Air Quality Not available.
Flu Activity Not available.
SPECI PAKV 271914Z AUTO VRB03KT 10SM BKN016 OVC044 13/11 A2977 RMK AO1 T01330106 TSNO

More Conditions Fewer Conditions

10-Day Weather Forecast

Almanac

Astronomy

Aug. 27, 2014 Rise Set
Actual Time 7:02 AM AKDT 10:08 PM AKDT
Civil Twilight 6:05 AM AKDT 11:03 PM AKDT
Nautical Twilight 4:41 AM AKDT 12:25 AM AKDT
Astronomical Twilight 3:08 AM AKDT 2:03 AM AKDT
Moon 10:10 AM AKDT 9:57 PM AKDT
Length of Visible Light 16h 58m
Length of Day
15h 05m
Tomorrow will be 6m 36s shorter.
Waxing Crescent, 4% of the Moon is Illuminated
Today
Waxing Crescent
Sep 2
First Quarter
Sep 8
Full
Sep 15
Last Quarter
Sep 24
New

Today's Extremes

State Highs State Lows

Community

WunderPhotos

Upload Photos

1,747,769 photos uploaded!

Nearby

Snow Depth

Station Depth Elevation
Pargon Creek 0 in 300 ft
Rocky Point 4 in 500 ft
Susitna Valley High 1 in 375 ft
Coldfoot 1 in 1040 ft
Point Mackenzie 1 in 200 ft

Earthquake Activity

City Distance Mag. Time & Date
No recent earthquake activity has been reported nearby.
Minimum magnitude displayed is 2.5.

Coastal Water Temperatures

Place Temperature
No Stations Reporting

Nearby Weather Stations